CheckWX is a tool to help pilots better visualize weather data.  It is not intended as a substitute for an official pre-flight weather briefing.

14:58:43 UTC

CYKF METAR
Waterloo Airport
Kitchener, Canada
Current

59 mins ago

CYKF 211400Z AUTO 24011KT 9SM CLR M10/M13 A3042 RMK ICG INTMT SLP327
Observed
Feb-21 @ 14:00 UTC
Wind
  • 240° at 11 KTS
Visibility
9 SM
Flight Rules
VFR
Cloud Levels
  • Clear skies
Temperature
-10°C / 14°F
Dewpoint
-13°C / 9°F
Humidity
79%
Altimeter
30.42" Hg
Pressure
1030.12 hPa
Previous

2 hours ago

CYKF 211300Z AUTO 24009KT 9SM CLR M11/M15 A3042 RMK ICG SLP327
Observed
Feb-21 @ 13:00 UTC
Wind
  • 240° at 9 KTS
Visibility
9 SM
Flight Rules
VFR
Cloud Levels
  • Clear skies
Temperature
-11°C / 12°F
Dewpoint
-15°C / 5°F
Humidity
73%
Altimeter
30.42" Hg
Pressure
1030.12 hPa
Previous

3 hours ago

CYKF 211200Z AUTO 22005KT 9SM CLR M12/M16 A3041 RMK ICG SLP324
Observed
Feb-21 @ 12:00 UTC
Wind
  • 220° at 5 KTS
Visibility
9 SM
Flight Rules
VFR
Cloud Levels
  • Clear skies
Temperature
-12°C / 10°F
Dewpoint
-16°C / 3°F
Humidity
72%
Altimeter
30.41" Hg
Pressure
1029.82 hPa